Time;durP1;ratioP1;P1;durP2;ratioP2;P2;SDS_P1;SDS_P2;PMS_P1;PMS_P2;Temp;Humidity;BMP_temperature;BMP_pressure;BME280_temperature;BME280_humidity;BME280_pressure;Samples;Min_cycle;Max_cycle;Signal;HPM_P1;HPM_P2
2022/01/26 00:07:13;;;;;;;;;53.67;43.33;;;;;0.37;100.00;103153.41;5118829;27;44834;-82
2022/01/26 00:09:39;;;;;;;;;41.67;34.67;;;;;0.32;100.00;103135.91;5100708;27;44864;-82
2022/01/26 00:12:04;;;;;;;;;54.00;41.33;;;;;0.32;100.00;103152.47;5102187;27;44873;-81
2022/01/26 00:14:30;;;;;;;;;33.67;31.33;;;;;0.31;100.00;103144.63;5126212;27;45374;-82
2022/01/26 00:16:55;;;;;;;;;56.33;44.00;;;;;0.33;100.00;103142.91;5124088;27;44774;-81
2022/01/26 00:19:29;;;;;;;;;56.67;35.33;;;;;0.32;100.00;103142.03;5121024;27;44793;-82
2022/01/26 00:21:56;;;;;;;;;44.00;35.67;;;;;0.37;100.00;103139.47;5117925;27;44768;-82
2022/01/26 00:29:32;;;;;;;;;68.50;50.00;;;;;0.43;100.00;103136.94;5117511;27;44831;-82
2022/01/26 00:42:57;;;;;;;;;67.67;49.00;;;;;0.44;100.00;103157.03;5117035;27;44873;-82
2022/01/26 00:45:27;;;;;;;;;57.67;43.67;;;;;0.48;100.00;103148.34;5097744;27;45392;-83
2022/01/26 00:47:52;;;;;;;;;58.67;44.00;;;;;0.50;100.00;103146.63;5116425;27;44797;-82
2022/01/26 00:50:18;;;;;;;;;62.33;46.33;;;;;0.56;100.00;103145.84;5098378;27;45309;-82
2022/01/26 00:52:51;;;;;;;;;51.67;40.67;;;;;0.54;100.00;103151.06;5116776;27;44860;-83
2022/01/26 00:55:18;;;;;;;;;54.33;40.33;;;;;0.60;100.00;103145.91;5116618;27;45559;-83
2022/01/26 00:57:44;;;;;;;;;60.67;45.00;;;;;0.57;100.00;103145.84;5098203;27;44865;-82
2022/01/26 01:00:22;;;;;;;;;44.33;34.33;;;;;0.60;100.00;103145.91;5098251;27;44815;-80
2022/01/26 01:02:49;;;;;;;;;59.33;40.67;;;;;0.59;100.00;103143.28;5098420;27;45499;-82
2022/01/26 01:05:21;;;;;;;;;55.67;42.67;;;;;0.65;100.00;103152.06;5121793;27;45312;-83
2022/01/26 01:07:50;;;;;;;;;54.33;42.67;;;;;0.69;100.00;103148.63;5103383;27;44822;-82
2022/01/26 01:10:19;;;;;;;;;53.67;41.00;;;;;0.67;100.00;103147.72;5117741;27;44805;-81
2022/01/26 01:12:45;;;;;;;;;50.00;39.00;;;;;0.70;100.00;103150.38;5119778;27;44856;-82
2022/01/26 01:15:13;;;;;;;;;58.00;43.00;;;;;0.64;100.00;103142.47;5120228;27;45279;-81
2022/01/26 01:17:44;;;;;;;;;36.33;31.33;;;;;0.66;100.00;103132.03;5120729;27;45444;-83
2022/01/26 01:20:51;;;;;;;;;49.33;36.33;;;;;0.67;100.00;103136.38;5120095;27;44783;-81
2022/01/26 01:28:59;;;;;;;;;38.00;38.00;;;;;0.65;100.00;103136.38;5121207;27;44809;-82
2022/01/26 01:31:42;;;;;;;;;59.67;43.67;;;;;0.65;100.00;103138.13;5120894;27;44965;-81
2022/01/26 01:34:09;;;;;;;;;59.67;47.33;;;;;0.61;100.00;103149.38;5121709;27;45612;-82
2022/01/26 01:36:36;;;;;;;;;60.33;44.33;;;;;0.59;100.00;103152.00;5126743;27;45084;-82
2022/01/26 01:39:09;;;;;;;;;46.33;39.67;;;;;0.60;100.00;103147.63;5121260;27;44842;-83
2022/01/26 01:41:39;;;;;;;;;50.33;39.67;;;;;0.63;100.00;103147.66;5120045;27;44729;-81
2022/01/26 01:44:06;;;;;;;;;44.33;38.67;;;;;0.64;100.00;103144.22;5119825;27;44920;-82
2022/01/26 01:46:33;;;;;;;;;43.00;34.00;;;;;0.64;100.00;103141.59;5101311;27;45407;-81
2022/01/26 01:48:58;;;;;;;;;20.67;19.67;;;;;0.64;100.00;103142.47;5108774;27;45218;-80
2022/01/26 01:51:30;;;;;;;;;37.00;31.67;;;;;0.64;100.00;103139.84;5099112;27;45315;-80
2022/01/26 01:53:55;;;;;;;;;64.67;46.67;;;;;0.65;100.00;103159.91;5099217;27;45282;-81
2022/01/26 01:56:24;;;;;;;;;44.33;35.67;;;;;0.62;100.00;103157.25;5099746;27;45114;-81
2022/01/26 01:58:50;;;;;;;;;57.33;43.33;;;;;0.64;100.00;103163.41;5099307;27;45242;-82
2022/01/26 02:01:16;;;;;;;;;44.67;33.00;;;;;0.61;100.00;103159.84;5080259;27;45421;-82
2022/01/26 02:03:41;;;;;;;;;44.67;34.33;;;;;0.66;100.00;103155.56;5098861;27;44963;-82
2022/01/26 02:06:07;;;;;;;;;56.33;38.33;;;;;0.67;100.00;103159.91;5100347;27;45347;-82
2022/01/26 02:08:33;;;;;;;;;48.00;42.00;;;;;0.69;100.00;103159.09;5107400;27;44734;-82
2022/01/26 02:10:59;;;;;;;;;54.33;39.67;;;;;0.63;100.00;103166.88;5099466;27;44816;-82
2022/01/26 02:13:29;;;;;;;;;48.33;40.00;;;;;0.60;100.00;103156.34;5079731;27;45340;-82
2022/01/26 02:16:11;;;;;;;;;51.00;39.33;;;;;0.62;100.00;103162.47;5098637;27;45192;-81
2022/01/26 02:18:52;;;;;;;;;52.00;40.33;;;;;0.64;100.00;103154.69;5098666;27;44778;-81
2022/01/26 02:22:03;;;;;;;;;54.33;40.33;;;;;0.60;100.00;103156.34;5098134;27;44729;-82
2022/01/26 02:52:39;;;;;;;;;44.00;26.67;;;;;0.56;100.00;103141.47;5015682;28;44857;-82
2022/01/26 03:00:17;;;;;;;;;48.00;35.67;;;;;0.59;100.00;103151.13;5016046;28;45480;-82
2022/01/26 03:03:00;;;;;;;;;42.67;36.00;;;;;0.56;100.00;103145.84;5015869;28;45303;-82
2022/01/26 03:05:32;;;;;;;;;44.00;38.67;;;;;0.62;100.00;103136.31;5016345;28;44876;-82
2022/01/26 03:08:02;;;;;;;;;50.00;40.00;;;;;0.55;100.00;103139.72;5015451;28;44960;-82
2022/01/26 03:10:44;;;;;;;;;36.00;30.00;;;;;0.64;100.00;103139.84;5015273;28;45379;-81
2022/01/26 03:13:16;;;;;;;;;44.33;34.67;;;;;0.71;100.00;103130.34;5015122;28;44704;-81
2022/01/26 03:15:47;;;;;;;;;55.33;42.00;;;;;0.75;100.00;103124.28;5020410;28;45331;-81
2022/01/26 03:21:01;;;;;;;;;36.67;34.00;;;;;0.78;100.00;103119.09;5015001;28;45478;-81
2022/01/26 03:34:14;;;;;;;;;42.67;37.00;;;;;0.93;100.00;103123.63;5033054;28;45480;-81
2022/01/26 03:37:04;;;;;;;;;38.00;33.00;;;;;0.92;100.00;103120.16;5034278;28;44783;-81
2022/01/26 03:39:29;;;;;;;;;43.67;33.33;;;;;0.93;100.00;103114.03;5033951;28;44988;-81
2022/01/26 03:42:05;;;;;;;;;40.67;38.33;;;;;0.98;100.00;103108.88;5034297;28;45591;-81
2022/01/26 03:44:32;;;;;;;;;35.33;29.00;;;;;0.99;100.00;103110.63;5033494;28;44842;-81
2022/01/26 03:46:58;;;;;;;;;50.67;39.00;;;;;0.99;100.00;103108.00;5034627;28;44831;-80
2022/01/26 03:49:23;;;;;;;;;45.33;34.67;;;;;1.05;100.00;103113.28;5036743;28;44773;-80
2022/01/26 03:51:49;;;;;;;;;40.00;35.67;;;;;1.09;100.00;103111.59;5041597;28;45347;-80
2022/01/26 03:54:16;;;;;;;;;52.33;34.33;;;;;1.08;100.00;103115.06;5024873;28;44833;-79
2022/01/26 03:56:42;;;;;;;;;41.67;35.67;;;;;1.13;100.00;103122.13;5038152;28;45535;-80
2022/01/26 03:59:08;;;;;;;;;42.00;35.33;;;;;1.13;100.00;103124.72;5036280;28;45625;-80
2022/01/26 04:01:34;;;;;;;;;50.67;39.67;;;;;1.12;100.00;103122.97;5037085;28;45249;-80
2022/01/26 04:04:00;;;;;;;;;46.67;38.00;;;;;1.15;100.00;103124.75;5034597;28;45069;-79
2022/01/26 04:06:26;;;;;;;;;53.67;38.00;;;;;1.16;100.00;103122.16;5034516;28;45529;-80
2022/01/26 04:08:51;;;;;;;;;57.67;41.33;;;;;1.18;100.00;103115.19;5033972;28;45531;-80
2022/01/26 04:13:57;;;;;;;;;55.33;38.33;;;;;1.03;100.00;103113.28;5096631;27;44800;-80
2022/01/26 04:16:23;;;;;;;;;63.33;37.67;;;;;1.06;100.00;103114.16;5078975;27;44822;-80
2022/01/26 04:18:48;;;;;;;;;45.67;37.33;;;;;1.10;100.00;103113.34;5096950;27;44901;-81
2022/01/26 04:24:12;;;;;;;;;56.00;39.67;;;;;1.23;100.00;103105.63;5096864;27;45250;-81
2022/01/26 04:29:12;;;;;;;;;54.67;43.00;;;;;1.33;100.00;103110.97;5104959;27;44761;-80
2022/01/26 04:31:38;;;;;;;;;58.67;36.00;;;;;1.33;100.00;103100.50;5100076;27;45261;-80
2022/01/26 04:34:03;;;;;;;;;54.33;41.00;;;;;1.39;100.00;103096.19;5096207;27;44838;-81
2022/01/26 04:36:36;;;;;;;;;52.67;42.33;;;;;1.47;100.00;103104.13;5096907;27;44859;-80
2022/01/26 04:39:07;;;;;;;;;73.00;46.00;;;;;1.46;100.00;103097.13;5096868;27;44878;-81
2022/01/26 04:42:18;;;;;;;;;57.33;44.67;;;;;1.52;100.00;103103.28;5098783;27;45145;-79
2022/01/26 04:44:27;;;;;;;;;60.33;44.33;;;;;1.58;100.00;103089.34;5089164;27;45373;-79
2022/01/26 04:46:53;;;;;;;;;59.67;45.33;;;;;1.64;100.00;103086.78;5100348;27;45292;-80
2022/01/26 04:49:20;;;;;;;;;66.67;49.33;;;;;1.72;100.00;103081.63;5103306;27;44951;-80
2022/01/26 04:51:46;;;;;;;;;51.33;39.67;;;;;1.78;100.00;103082.53;5103303;27;45161;-81
2022/01/26 04:54:12;;;;;;;;;55.00;38.67;;;;;1.87;100.00;103094.81;5081646;27;45517;-81
2022/01/26 04:56:38;;;;;;;;;44.00;39.67;;;;;1.94;100.00;103091.41;5100013;27;44729;-80
2022/01/26 04:59:04;;;;;;;;;60.33;45.33;;;;;1.97;100.00;103094.00;5099999;27;45292;-81
2022/01/26 05:01:32;;;;;;;;;54.67;41.67;;;;;1.97;100.00;103088.78;5099981;27;45407;-81
2022/01/26 05:03:58;;;;;;;;;52.33;40.67;;;;;2.01;100.00;103081.81;5100586;27;45360;-80
2022/01/26 05:06:23;;;;;;;;;56.00;41.00;;;;;2.06;100.00;103085.34;5108623;27;44806;-81
2022/01/26 05:08:49;;;;;;;;;56.33;43.33;;;;;2.12;100.00;103084.50;5085214;27;44974;-82
2022/01/26 05:11:21;;;;;;;;;61.67;45.00;;;;;2.11;100.00;103086.25;5099040;27;45083;-81
2022/01/26 05:13:46;;;;;;;;;54.00;43.00;;;;;2.14;100.00;103086.28;5081117;27;44955;-81
2022/01/26 05:16:12;;;;;;;;;53.33;42.67;;;;;2.17;100.00;103081.03;5099368;27;44829;-82
2022/01/26 05:18:37;;;;;;;;;56.67;41.67;;;;;2.15;100.00;103076.66;5099973;27;45373;-80
2022/01/26 05:21:03;;;;;;;;;46.33;39.33;;;;;2.17;100.00;103075.78;5099259;27;45548;-81
2022/01/26 05:23:28;;;;;;;;;55.67;44.00;;;;;2.22;100.00;103078.44;5099537;27;44754;-80
2022/01/26 05:25:54;;;;;;;;;62.33;45.00;;;;;2.24;100.00;103080.22;5099172;27;44734;-81
2022/01/26 05:28:19;;;;;;;;;59.33;42.33;;;;;2.27;100.00;103080.25;5099728;27;45438;-82
2022/01/26 05:30:45;;;;;;;;;56.33;40.33;;;;;2.30;100.00;103080.22;5099764;27;46010;-80
2022/01/26 05:33:10;;;;;;;;;53.67;41.67;;;;;2.33;100.00;103066.28;5100491;27;44918;-80
2022/01/26 05:35:35;;;;;;;;;57.33;42.00;;;;;2.37;100.00;103067.13;5100312;27;45315;-81
2022/01/26 05:38:01;;;;;;;;;56.00;40.33;;;;;2.40;100.00;103075.91;5099820;27;45237;-79
2022/01/26 05:40:27;;;;;;;;;58.00;40.67;;;;;2.42;100.00;103066.31;5081582;27;47488;-80
2022/01/26 05:42:52;;;;;;;;;59.33;46.00;;;;;2.42;100.00;103058.44;5102188;27;44753;-81
2022/01/26 05:45:32;;;;;;;;;60.33;42.67;;;;;2.45;100.00;103061.06;5088663;27;45056;-82
2022/01/26 05:48:01;;;;;;;;;58.33;45.67;;;;;2.47;100.00;103061.97;5099618;27;44674;-80
2022/01/26 05:50:27;;;;;;;;;50.67;41.33;;;;;2.42;100.00;103054.91;5099567;27;45453;-81
2022/01/26 05:52:52;;;;;;;;;50.33;37.33;;;;;2.40;100.00;103049.69;5098846;27;44826;-81
2022/01/26 05:55:18;;;;;;;;;52.00;41.00;;;;;2.44;100.00;103056.69;5099010;27;44995;-82
2022/01/26 05:57:43;;;;;;;;;62.00;42.33;;;;;2.45;100.00;103050.56;5099335;27;45473;-82
2022/01/26 06:00:09;;;;;;;;;56.33;43.33;;;;;2.45;100.00;103054.94;5098755;27;45024;-82
2022/01/26 06:02:35;;;;;;;;;57.33;48.00;;;;;2.48;100.00;103055.84;5098791;27;45379;-81
2022/01/26 06:05:00;;;;;;;;;59.33;47.67;;;;;2.50;100.00;103047.97;5079927;27;44803;-82
2022/01/26 06:07:25;;;;;;;;;61.67;43.00;;;;;2.51;100.00;103057.59;5098523;27;45138;-82
2022/01/26 06:09:51;;;;;;;;;66.00;50.33;;;;;2.46;100.00;103065.44;5098218;27;45215;-80
2022/01/26 06:12:16;;;;;;;;;66.33;45.67;;;;;2.41;100.00;103063.66;5098214;27;44906;-82
2022/01/26 06:14:42;;;;;;;;;58.33;40.67;;;;;2.20;100.00;103065.31;5080027;27;45204;-82
2022/01/26 06:17:07;;;;;;;;;60.00;49.67;;;;;2.16;100.00;103070.53;5098551;27;44810;-82
2022/01/26 06:19:33;;;;;;;;;63.00;46.33;;;;;2.12;100.00;103071.38;5080592;27;45382;-81
2022/01/26 06:22:00;;;;;;;;;67.00;50.00;;;;;1.98;100.00;103080.06;5100320;27;44833;-82
2022/01/26 06:24:26;;;;;;;;;59.67;44.33;;;;;1.96;100.00;103083.53;5106772;27;44822;-81
2022/01/26 06:26:51;;;;;;;;;48.00;38.67;;;;;1.93;100.00;103097.47;5083537;27;44866;-82
2022/01/26 06:29:16;;;;;;;;;70.33;54.67;;;;;1.80;100.00;103099.16;5098524;27;44924;-81
2022/01/26 06:31:43;;;;;;;;;59.00;44.00;;;;;1.80;100.00;103109.63;5098177;27;44796;-81
2022/01/26 06:34:11;;;;;;;;;65.33;49.33;;;;;1.85;100.00;103108.78;5080058;27;45500;-82
2022/01/26 06:36:42;;;;;;;;;59.67;47.00;;;;;1.93;100.00;103113.19;5098156;27;44722;-83
2022/01/26 06:39:08;;;;;;;;;68.00;49.00;;;;;2.00;100.00;103127.25;5097786;27;45093;-82
2022/01/26 06:41:34;;;;;;;;;74.33;58.33;;;;;2.00;100.00;103125.50;5098199;27;44833;-83
2022/01/26 06:44:06;;;;;;;;;72.00;56.33;;;;;2.01;100.00;103126.38;5079514;27;44791;-81
2022/01/26 06:46:53;;;;;;;;;68.33;49.33;;;;;2.03;100.00;103128.16;5079530;27;44781;-83
2022/01/26 06:51:53;;;;;;;;;72.33;53.00;;;;;2.02;100.00;103147.34;5097731;27;45205;-81
2022/01/26 06:54:19;;;;;;;;;75.00;54.67;;;;;2.04;100.00;103147.38;5097970;27;45408;-82
2022/01/26 06:56:45;;;;;;;;;72.33;57.67;;;;;2.04;100.00;103152.63;5097932;27;44808;-82
2022/01/26 06:59:11;;;;;;;;;79.67;56.67;;;;;2.04;100.00;103144.75;5097842;27;45235;-82
2022/01/26 07:01:37;;;;;;;;;78.67;59.33;;;;;2.03;100.00;103132.50;5083360;27;44707;-82
2022/01/26 07:04:02;;;;;;;;;81.00;59.67;;;;;2.03;100.00;103140.34;5104127;27;45438;-82
2022/01/26 07:06:27;;;;;;;;;76.00;57.00;;;;;2.04;100.00;103140.41;5102277;27;44796;-83
2022/01/26 07:08:53;;;;;;;;;63.33;43.67;;;;;2.00;100.00;103149.09;5102312;27;45222;-84
2022/01/26 07:11:18;;;;;;;;;63.00;51.33;;;;;1.98;100.00;103148.22;5081843;27;45400;-84
2022/01/26 07:13:45;;;;;;;;;77.00;55.33;;;;;1.96;100.00;103146.44;5098148;27;45308;-82
2022/01/26 07:21:38;;;;;;;;;63.67;49.67;;;;;1.83;100.00;103142.84;5102030;27;44698;-82
2022/01/26 07:24:04;;;;;;;;;66.67;49.33;;;;;1.90;100.00;103152.53;5097979;27;44840;-80
2022/01/26 07:26:30;;;;;;;;;69.67;53.67;;;;;1.96;100.00;103138.56;5097272;27;44841;-83
2022/01/26 07:29:00;;;;;;;;;72.67;52.00;;;;;2.05;100.00;103130.78;5097804;27;45720;-84
2022/01/26 07:31:26;;;;;;;;;82.67;54.67;;;;;2.13;100.00;103126.47;5097184;27;44859;-82
2022/01/26 07:33:55;;;;;;;;;78.00;58.67;;;;;2.14;100.00;103135.22;5097719;27;44807;-83
2022/01/26 07:36:22;;;;;;;;;67.33;52.33;;;;;2.14;100.00;103151.81;5097280;27;44885;-82
2022/01/26 07:38:50;;;;;;;;;69.00;51.33;;;;;2.07;100.00;103147.38;5097036;27;45183;-82
2022/01/26 07:41:16;;;;;;;;;64.33;44.00;;;;;2.10;100.00;103157.91;5097632;27;45287;-82
2022/01/26 07:43:41;;;;;;;;;76.67;58.00;;;;;2.10;100.00;103152.66;5102548;27;45320;-83
2022/01/26 07:46:09;;;;;;;;;65.00;49.33;;;;;2.16;100.00;103147.44;5104689;27;45600;-83
2022/01/26 07:48:34;;;;;;;;;79.33;55.67;;;;;2.22;100.00;103142.25;5097247;27;45348;-82
2022/01/26 07:50:59;;;;;;;;;63.00;46.33;;;;;2.24;100.00;103137.03;5096735;27;45383;-83
2022/01/26 07:53:25;;;;;;;;;69.67;47.67;;;;;2.22;100.00;103154.47;5097336;27;45028;-81
2022/01/26 07:55:50;;;;;;;;;61.33;45.33;;;;;2.18;100.00;103163.22;5097791;27;45394;-82
2022/01/26 07:58:18;;;;;;;;;74.00;55.67;;;;;2.17;100.00;103159.69;5097094;27;45262;-84
2022/01/26 08:00:43;;;;;;;;;66.00;51.67;;;;;2.19;100.00;103165.84;5097067;27;44787;-82
2022/01/26 08:03:09;;;;;;;;;75.67;53.33;;;;;2.19;100.00;103162.34;5078949;27;45369;-83
2022/01/26 08:05:34;;;;;;;;;70.00;52.33;;;;;2.20;100.00;103164.09;5098021;27;45374;-82
2022/01/26 08:07:59;;;;;;;;;73.00;54.67;;;;;2.22;100.00;103168.47;5078495;27;46875;-83
2022/01/26 08:10:25;;;;;;;;;63.67;50.67;;;;;2.22;100.00;103165.84;5097318;27;44748;-83
2022/01/26 08:12:50;;;;;;;;;76.33;57.00;;;;;2.22;100.00;103165.84;5096850;27;44765;-82
2022/01/26 08:15:16;;;;;;;;;68.33;51.67;;;;;2.28;100.00;103155.41;5097173;27;44854;-82
2022/01/26 08:17:42;;;;;;;;;74.67;55.67;;;;;2.34;100.00;103148.44;5099592;27;45172;-83
2022/01/26 08:20:10;;;;;;;;;80.00;59.33;;;;;2.41;100.00;103143.22;5101961;27;44730;-83
2022/01/26 08:22:35;;;;;;;;;77.67;57.00;;;;;2.46;100.00;103136.25;5078454;27;45268;-82
2022/01/26 08:25:02;;;;;;;;;94.00;64.50;;;;;2.49;100.00;103146.78;5096541;27;45416;-83
2022/01/26 08:27:33;;;;;;;;;78.33;60.00;;;;;2.24;100.00;103143.16;5097596;27;45207;-82
2022/01/26 08:30:06;;;;;;;;;68.67;48.67;;;;;2.23;100.00;103145.78;5098355;27;45509;-83
2022/01/26 08:32:31;;;;;;;;;69.00;48.33;;;;;2.31;100.00;103133.56;5097571;27;45293;-82
2022/01/26 08:34:57;;;;;;;;;63.00;49.33;;;;;2.35;100.00;103130.09;5098711;27;44916;-83
2022/01/26 08:37:22;;;;;;;;;68.67;50.00;;;;;2.43;100.00;103115.28;5100012;27;45346;-85
2022/01/26 08:39:48;;;;;;;;;58.00;45.33;;;;;2.51;100.00;103139.78;5101634;27;44726;-83
2022/01/26 08:42:13;;;;;;;;;70.00;53.00;;;;;2.52;100.00;103145.94;5081242;27;44922;-84
2022/01/26 08:44:39;;;;;;;;;72.33;53.33;;;;;2.57;100.00;103142.47;5084102;27;45252;-82
2022/01/26 08:47:05;;;;;;;;;74.33;53.00;;;;;2.67;100.00;103124.16;5084208;27;46055;-84
2022/01/26 08:49:31;;;;;;;;;76.67;54.67;;;;;2.76;100.00;103130.31;5096615;27;45381;-85
2022/01/26 08:51:58;;;;;;;;;72.00;53.33;;;;;2.87;100.00;103153.09;5118041;27;45485;-84
2022/01/26 08:54:23;;;;;;;;;74.33;55.33;;;;;2.95;100.00;103154.88;5101888;27;45333;-83
2022/01/26 08:56:53;;;;;;;;;70.67;51.33;;;;;3.03;100.00;103152.28;5099464;27;46725;-82
2022/01/26 08:59:21;;;;;;;;;69.00;53.00;;;;;3.10;100.00;103151.44;5100042;27;44793;-83
2022/01/26 09:01:47;;;;;;;;;70.67;54.00;;;;;3.15;100.00;103143.56;5079478;27;44808;-83
2022/01/26 09:04:13;;;;;;;;;74.67;51.00;;;;;3.18;100.00;103149.69;5078874;27;44868;-84
2022/01/26 09:06:50;;;;;;;;;68.33;53.33;;;;;3.21;100.00;103170.72;5097876;27;45169;-82
2022/01/26 09:09:17;;;;;;;;;67.33;52.67;;;;;3.18;100.00;103154.94;5083604;27;45221;-84
2022/01/26 09:11:42;;;;;;;;;64.00;51.67;;;;;3.19;100.00;103159.34;5097101;27;45166;-83
2022/01/26 09:14:10;;;;;;;;;72.00;54.00;;;;;3.22;100.00;103156.69;5105536;27;44749;-84
2022/01/26 09:16:36;;;;;;;;;70.33;51.67;;;;;3.27;100.00;103160.22;5120998;27;45232;-84
2022/01/26 09:19:10;;;;;;;;;67.67;49.67;;;;;3.28;100.00;103161.97;5097892;27;44803;-83
2022/01/26 09:21:36;;;;;;;;;65.33;52.00;;;;;3.33;100.00;103177.72;5079072;27;44795;-82
2022/01/26 09:24:02;;;;;;;;;75.33;54.00;;;;;3.31;100.00;103172.50;5099257;27;44810;-84
2022/01/26 09:26:27;;;;;;;;;72.00;54.33;;;;;3.29;100.00;103178.63;5102580;27;45283;-85
2022/01/26 09:28:53;;;;;;;;;71.67;53.00;;;;;3.28;100.00;103180.34;5113605;27;44752;-84
2022/01/26 09:31:18;;;;;;;;;66.00;52.00;;;;;3.37;100.00;103187.38;5124268;27;44805;-82
2022/01/26 09:33:44;;;;;;;;;70.67;51.67;;;;;3.45;100.00;103195.31;5129695;27;44929;-84
2022/01/26 09:36:09;;;;;;;;;60.67;50.33;;;;;3.53;100.00;103198.78;5130949;27;45220;-84
2022/01/26 09:38:35;;;;;;;;;65.33;48.00;;;;;3.51;100.00;103193.56;5132473;27;45291;-84
2022/01/26 09:41:00;;;;;;;;;69.00;51.33;;;;;3.48;100.00;103201.44;5113809;27;44706;-85
2022/01/26 09:43:28;;;;;;;;;62.67;46.67;;;;;3.47;100.00;103180.41;5109998;27;44863;-85
2022/01/26 09:45:53;;;;;;;;;60.00;47.00;;;;;3.50;100.00;103172.53;5127602;27;45258;-84
2022/01/26 09:48:19;;;;;;;;;67.67;50.33;;;;;3.57;100.00;103195.31;5106834;27;45429;-84
2022/01/26 09:50:45;;;;;;;;;66.33;49.00;;;;;3.64;100.00;103194.47;5102850;27;44826;-85
2022/01/26 09:53:16;;;;;;;;;68.00;52.67;;;;;3.66;100.00;103200.59;5104900;27;44872;-85
2022/01/26 09:55:42;;;;;;;;;62.33;47.67;;;;;3.70;100.00;103209.34;5103701;27;47269;-85
2022/01/26 09:58:08;;;;;;;;;64.00;47.67;;;;;3.68;100.00;103212.00;5101676;27;44749;-85
2022/01/26 10:00:34;;;;;;;;;68.33;50.33;;;;;3.66;100.00;103211.09;5119967;27;45299;-82
2022/01/26 10:03:04;;;;;;;;;73.33;55.00;;;;;3.69;100.00;103205.84;5121898;27;44860;-84
2022/01/26 10:05:42;;;;;;;;;61.67;48.33;;;;;3.67;100.00;103211.97;5107851;27;45677;-83
2022/01/26 10:08:51;;;;;;;;;66.33;49.00;;;;;3.67;100.00;103207.59;5119629;27;44742;-83
2022/01/26 10:19:10;;;;;;;;;67.33;51.00;;;;;3.81;100.00;103197.09;5120417;27;45641;-85
2022/01/26 10:21:50;;;;;;;;;73.67;51.33;;;;;3.86;100.00;103209.34;5121780;27;44749;-86
2022/01/26 10:24:16;;;;;;;;;66.00;49.33;;;;;3.90;100.00;103199.72;5101268;27;44792;-86
2022/01/26 10:26:48;;;;;;;;;70.00;50.67;;;;;3.89;100.00;103195.34;5119869;27;45068;-86
2022/01/26 10:29:15;;;;;;;;;71.67;53.33;;;;;3.74;100.00;103209.38;5102083;27;44747;-86
2022/01/26 10:31:41;;;;;;;;;59.33;43.33;;;;;3.60;100.00;103209.34;5105399;27;45273;-85
2022/01/26 10:34:36;;;;;;;;;38.67;29.33;;;;;3.57;100.00;103205.81;5121406;27;45424;-85
2022/01/26 10:37:03;;;;;;;;;57.67;43.67;;;;;3.52;100.00;103210.19;5109743;27;45006;-86
2022/01/26 10:39:42;;;;;;;;;70.67;52.33;;;;;3.39;100.00;103192.66;5121248;27;44783;-86
2022/01/26 10:42:11;;;;;;;;;59.00;46.33;;;;;3.29;100.00;103186.50;5119836;27;44796;-84
2022/01/26 10:44:49;;;;;;;;;64.00;53.33;;;;;3.21;100.00;103202.22;5118674;27;45248;-83
2022/01/26 10:47:26;;;;;;;;;71.67;49.00;;;;;3.12;100.00;103207.44;5106547;27;45300;-85
2022/01/26 10:50:28;;;;;;;;;73.67;52.00;;;;;3.15;100.00;103217.97;5081560;27;45373;-84
2022/01/26 10:52:55;;;;;;;;;60.67;44.67;;;;;3.24;100.00;103198.72;5119316;27;45331;-84
2022/01/26 10:55:23;;;;;;;;;72.00;50.67;;;;;3.38;100.00;103194.38;5119389;27;44867;-83
2022/01/26 10:57:48;;;;;;;;;73.00;54.00;;;;;3.51;100.00;103200.56;5118855;27;45434;-84
2022/01/26 11:00:14;;;;;;;;;67.67;50.00;;;;;3.60;100.00;103190.06;5104067;27;44816;-81
2022/01/26 11:02:41;;;;;;;;;59.33;46.00;;;;;3.69;100.00;103187.44;5126371;27;45261;-82
2022/01/26 11:05:07;;;;;;;;;63.00;50.33;;;;;3.79;100.00;103185.72;5113705;27;45253;-82
2022/01/26 11:07:37;;;;;;;;;69.67;51.67;;;;;3.88;100.00;103195.38;5099220;27;44937;-84
2022/01/26 11:10:05;;;;;;;;;57.33;46.67;;;;;3.90;100.00;103188.34;5097792;27;44892;-84
2022/01/26 11:12:31;;;;;;;;;62.67;47.33;;;;;3.88;100.00;103169.06;5098568;27;44717;-84
2022/01/26 11:15:08;;;;;;;;;67.33;47.00;;;;;3.91;100.00;103169.91;5097541;27;46782;-84
2022/01/26 11:17:37;;;;;;;;;65.00;50.67;;;;;3.93;100.00;103175.19;5097758;27;45353;-83
2022/01/26 11:20:19;;;;;;;;;63.00;44.00;;;;;3.91;100.00;103167.28;5098403;27;45357;-84
2022/01/26 11:22:56;;;;;;;;;59.67;47.33;;;;;3.89;100.00;103171.69;5110183;27;45370;-84
2022/01/26 11:25:25;;;;;;;;;66.33;51.00;;;;;3.91;100.00;103169.06;5114059;27;44771;-85
2022/01/26 11:27:52;;;;;;;;;64.33;46.67;;;;;3.99;100.00;103156.78;5114204;27;45434;-85
2022/01/26 11:30:24;;;;;;;;;54.33;45.33;;;;;4.05;100.00;103157.66;5124350;27;44750;-83
2022/01/26 11:32:55;;;;;;;;;68.67;46.67;;;;;4.15;100.00;103153.25;5103841;27;44871;-85
2022/01/26 11:35:23;;;;;;;;;64.00;48.00;;;;;4.22;100.00;103155.00;5123916;27;44806;-86
2022/01/26 11:38:04;;;;;;;;;61.00;45.33;;;;;4.18;100.00;103162.91;5109825;27;46169;-84
2022/01/26 11:46:25;;;;;;;;;68.33;52.67;;;;;4.16;100.00;103144.50;5122397;27;44815;-85
2022/01/26 11:49:11;;;;;;;;;72.33;52.33;;;;;4.23;100.00;103132.22;5112094;27;45058;-86
2022/01/26 11:51:41;;;;;;;;;70.00;52.67;;;;;4.28;100.00;103130.44;5099340;27;44752;-85
2022/01/26 11:54:51;;;;;;;;;70.33;53.33;;;;;4.25;100.00;103126.03;5111435;27;44769;-85
2022/01/26 11:57:19;;;;;;;;;61.33;44.33;;;;;4.26;100.00;103117.31;5119239;27;45311;-85
2022/01/26 11:59:57;;;;;;;;;63.33;48.67;;;;;4.31;100.00;103109.41;5118673;27;45208;-85
2022/01/26 12:02:43;;;;;;;;;61.33;48.67;;;;;4.38;100.00;103124.28;5118929;27;45348;-85
2022/01/26 12:05:12;;;;;;;;;68.00;50.00;;;;;4.43;100.00;103116.38;5118240;27;44955;-84
2022/01/26 12:07:54;;;;;;;;;69.33;53.00;;;;;4.50;100.00;103100.56;5119310;27;45339;-83
2022/01/26 12:10:32;;;;;;;;;64.00;51.00;;;;;4.59;100.00;103105.78;5103924;27;45410;-84
2022/01/26 12:13:21;;;;;;;;;72.00;55.00;;;;;4.65;100.00;103099.63;5126943;27;44768;-83
2022/01/26 12:38:33;;;;;;;;;78.00;57.00;;;;;5.00;100.00;103098.56;4975142;28;44852;-86
2022/01/26 12:42:00;;;;;;;;;73.00;57.33;;;;;4.96;100.00;103086.28;4959362;28;45039;-85
2022/01/26 12:44:22;;;;;;;;;74.33;59.67;;;;;4.96;100.00;103097.72;4967220;28;45352;-86
2022/01/26 12:46:48;;;;;;;;;72.00;52.00;;;;;5.01;100.00;103095.91;4980235;28;45457;-86
2022/01/26 12:49:19;;;;;;;;;78.33;58.33;;;;;5.02;100.00;103104.69;4971472;28;44902;-86
2022/01/26 12:51:51;;;;;;;;;82.67;61.33;;;;;5.02;100.00;103099.41;4987291;28;44800;-86
2022/01/26 12:54:17;;;;;;;;;75.67;56.33;;;;;5.03;100.00;103104.69;5062054;28;45238;-86
2022/01/26 12:56:42;;;;;;;;;72.33;54.00;;;;;5.01;100.00;103103.81;5062443;28;45418;-86
2022/01/26 12:59:15;;;;;;;;;79.33;62.33;;;;;4.95;100.00;103101.22;5063050;28;44857;-86
2022/01/26 13:01:41;;;;;;;;;80.33;61.67;;;;;4.96;100.00;103095.06;5061132;28;44827;-86
2022/01/26 13:04:12;;;;;;;;;80.67;60.33;;;;;4.95;100.00;103087.19;5059955;28;46480;-86
2022/01/26 13:06:46;;;;;;;;;77.33;58.67;;;;;4.93;100.00;103084.53;5080098;27;44972;-85
2022/01/26 13:09:17;;;;;;;;;78.67;57.67;;;;;4.95;100.00;103085.44;5126341;27;45227;-87
2022/01/26 13:11:46;;;;;;;;;68.00;54.00;;;;;4.95;100.00;103079.28;5128431;27;44801;-87
2022/01/26 13:14:21;;;;;;;;;79.00;58.00;;;;;4.94;100.00;103075.78;5128166;27;45385;-85
2022/01/26 13:17:02;;;;;;;;;78.00;60.33;;;;;4.91;100.00;103075.78;5125936;27;44628;-86
2022/01/26 13:19:45;;;;;;;;;82.67;59.33;;;;;4.90;100.00;103071.41;5123576;27;44810;-85
2022/01/26 13:25:04;;;;;;;;;86.67;61.00;;;;;4.81;100.00;103079.34;5126551;27;45365;-86
2022/01/26 13:38:44;;;;;;;;;84.67;62.33;;;;;4.79;100.00;103074.09;5097636;27;45450;-87
2022/01/26 13:41:28;;;;;;;;;75.33;58.00;;;;;4.81;100.00;103082.00;5120009;27;44776;-85